Portipesca — CUCU4 — position and weather

sailwx.info

Track history (hours):
 
Tides and Currents Weather Stations Pressure Air Temp Water Temp Dewpoint Dewpoint Depression Visibility Wind Speed Wind Dir Waves Ship Positions

Portipesca

Last reported at 2018-Jul-17 05:48 UTC. Time now 2018-Jul-22 08:38 UTC.
Position N 37°01' W 008°16'.

Length 23 m.

Type: Fishing. MMSI: 263409360.

Date/timePositionNaut miles runAvg speedWind from/ knotsBaromVisibWave heightAir tempDewpointWater temp
2018-Jul-17 05:48N 37°01' W 008°16'4 8.9
2018-Jul-17 05:23N 37°01' W 008°20'0 0.6
2018-Jul-17 04:37N 37°01' W 008°20'0 1.1
2018-Jul-17 04:13N 37°01' W 008°19'2 0.1
2018-Jul-16 06:47N 37°02' W 008°17'0 0.3
2018-Jul-16 06:30N 37°02' W 008°17'0 0.3
2018-Jul-16 06:00N 37°02' W 008°17'0 0.5
2018-Jul-16 05:30N 37°02' W 008°17'3 5.2
2018-Jul-16 04:54N 37°01' W 008°21'0 0.6
2018-Jul-16 04:28N 37°01' W 008°20'2 4.0
2018-Jul-16 03:56N 37°02' W 008°18'0 0.4
2018-Jul-16 03:30N 37°02' W 008°18'0 0.5
2018-Jul-16 02:58N 37°02' W 008°18'7 7.0
2018-Jul-16 02:00N 37°04' W 008°26'6 7.6
2018-Jul-16 01:10N 37°01' W 008°20'1 8.8
2018-Jul-16 01:01N 37°01' W 008°18'  
Track history (hours):
 
Tides and Currents Weather Stations Pressure Air Temp Water Temp Dewpoint Dewpoint Depression Visibility Wind Speed Wind Dir Waves Ship Positions

Portipesca

Last reported at 2018-Jul-17 05:48 UTC. Time now 2018-Jul-22 08:38 UTC.
Position N 37°01' W 008°16'.

Length 23 m.

Type: Fishing. MMSI: 263409360.

Date/timePositionNaut miles runAvg speedWind from/ knotsBaromVisibWave heightAir tempDewpointWater temp
2018-Jul-17 05:48N 37°01' W 008°16'4 8.9
2018-Jul-17 05:23N 37°01' W 008°20'0 0.6
2018-Jul-17 04:37N 37°01' W 008°20'0 1.1
2018-Jul-17 04:13N 37°01' W 008°19'2 0.1
2018-Jul-16 06:47N 37°02' W 008°17'0 0.3
2018-Jul-16 06:30N 37°02' W 008°17'0 0.3
2018-Jul-16 06:00N 37°02' W 008°17'0 0.5
2018-Jul-16 05:30N 37°02' W 008°17'3 5.2
2018-Jul-16 04:54N 37°01' W 008°21'0 0.6
2018-Jul-16 04:28N 37°01' W 008°20'2 4.0
2018-Jul-16 03:56N 37°02' W 008°18'0 0.4
2018-Jul-16 03:30N 37°02' W 008°18'0 0.5
2018-Jul-16 02:58N 37°02' W 008°18'7 7.0
2018-Jul-16 02:00N 37°04' W 008°26'6 7.6
2018-Jul-16 01:10N 37°01' W 008°20'1 8.8
2018-Jul-16 01:01N 37°01' W 008°18'  

Dump ship's entire track history